sensor_id;sensor_type;location;lat;lon;timestamp;P1;durP1;ratioP1;P2;durP2;ratioP2
65018;SDS011;66069;51.164;-114.452;2024-03-08T00:00:08;1.00;;;0.60;;
65018;SDS011;66069;51.164;-114.452;2024-03-08T00:02:37;0.73;;;0.30;;
65018;SDS011;66069;51.164;-114.452;2024-03-08T00:05:05;0.57;;;0.30;;
65018;SDS011;66069;51.164;-114.452;2024-03-08T00:07:36;0.40;;;0.30;;
65018;SDS011;66069;51.164;-114.452;2024-03-08T00:10:04;0.83;;;0.40;;
65018;SDS011;66069;51.164;-114.452;2024-03-08T00:12:41;0.40;;;0.28;;
65018;SDS011;66069;51.164;-114.452;2024-03-08T00:15:09;1.13;;;0.45;;
65018;SDS011;66069;51.164;-114.452;2024-03-08T00:17:40;1.30;;;0.60;;
65018;SDS011;66069;51.164;-114.452;2024-03-08T00:20:06;1.15;;;0.47;;
65018;SDS011;66069;51.164;-114.452;2024-03-08T00:22:36;0.85;;;0.40;;
65018;SDS011;66069;51.164;-114.452;2024-03-08T00:25:04;1.08;;;0.30;;
65018;SDS011;66069;51.164;-114.452;2024-03-08T00:27:31;0.50;;;0.20;;
65018;SDS011;66069;51.164;-114.452;2024-03-08T00:29:57;0.88;;;0.43;;
65018;SDS011;66069;51.164;-114.452;2024-03-08T00:32:24;0.50;;;0.30;;
65018;SDS011;66069;51.164;-114.452;2024-03-08T00:34:50;0.82;;;0.43;;
65018;SDS011;66069;51.164;-114.452;2024-03-08T00:37:20;1.30;;;0.50;;
65018;SDS011;66069;51.164;-114.452;2024-03-08T00:39:52;1.45;;;0.60;;
65018;SDS011;66069;51.164;-114.452;2024-03-08T00:42:19;1.15;;;0.70;;
65018;SDS011;66069;51.164;-114.452;2024-03-08T00:44:46;1.65;;;0.82;;
65018;SDS011;66069;51.164;-114.452;2024-03-08T00:47:16;1.58;;;0.88;;
65018;SDS011;66069;51.164;-114.452;2024-03-08T00:49:43;2.38;;;1.23;;
65018;SDS011;66069;51.164;-114.452;2024-03-08T00:52:09;2.25;;;1.20;;
65018;SDS011;66069;51.164;-114.452;2024-03-08T00:54:36;3.45;;;1.48;;
65018;SDS011;66069;51.164;-114.452;2024-03-08T00:57:02;3.58;;;1.63;;
65018;SDS011;66069;51.164;-114.452;2024-03-08T00:59:29;2.38;;;1.50;;
65018;SDS011;66069;51.164;-114.452;2024-03-08T01:01:58;3.03;;;1.67;;
65018;SDS011;66069;51.164;-114.452;2024-03-08T01:04:25;3.95;;;2.00;;
65018;SDS011;66069;51.164;-114.452;2024-03-08T01:06:54;2.72;;;1.40;;
65018;SDS011;66069;51.164;-114.452;2024-03-08T01:09:25;2.58;;;1.80;;
65018;SDS011;66069;51.164;-114.452;2024-03-08T01:11:52;3.92;;;1.88;;
65018;SDS011;66069;51.164;-114.452;2024-03-08T01:14:22;2.90;;;1.90;;
65018;SDS011;66069;51.164;-114.452;2024-03-08T01:16:50;3.53;;;1.80;;
65018;SDS011;66069;51.164;-114.452;2024-03-08T01:19:17;3.15;;;1.83;;
65018;SDS011;66069;51.164;-114.452;2024-03-08T01:21:43;2.83;;;2.08;;
65018;SDS011;66069;51.164;-114.452;2024-03-08T01:24:10;4.30;;;2.33;;
65018;SDS011;66069;51.164;-114.452;2024-03-08T01:26:36;3.35;;;2.15;;
65018;SDS011;66069;51.164;-114.452;2024-03-08T01:29:02;2.90;;;1.88;;
65018;SDS011;66069;51.164;-114.452;2024-03-08T01:31:29;3.30;;;1.95;;
65018;SDS011;66069;51.164;-114.452;2024-03-08T01:33:56;3.17;;;1.75;;
65018;SDS011;66069;51.164;-114.452;2024-03-08T01:36:22;3.00;;;2.00;;
65018;SDS011;66069;51.164;-114.452;2024-03-08T01:38:50;3.05;;;2.00;;
65018;SDS011;66069;51.164;-114.452;2024-03-08T01:41:17;3.75;;;1.90;;
65018;SDS011;66069;51.164;-114.452;2024-03-08T01:43:43;3.33;;;1.90;;
65018;SDS011;66069;51.164;-114.452;2024-03-08T01:46:15;3.50;;;2.10;;
65018;SDS011;66069;51.164;-114.452;2024-03-08T01:48:43;2.70;;;1.60;;
65018;SDS011;66069;51.164;-114.452;2024-03-08T01:51:10;2.45;;;1.67;;
65018;SDS011;66069;51.164;-114.452;2024-03-08T01:53:38;3.20;;;2.13;;
65018;SDS011;66069;51.164;-114.452;2024-03-08T01:56:05;3.88;;;1.60;;
65018;SDS011;66069;51.164;-114.452;2024-03-08T01:58:32;3.00;;;1.80;;
65018;SDS011;66069;51.164;-114.452;2024-03-08T02:00:58;2.97;;;1.67;;
65018;SDS011;66069;51.164;-114.452;2024-03-08T02:03:25;2.95;;;1.65;;
65018;SDS011;66069;51.164;-114.452;2024-03-08T02:05:53;3.20;;;1.70;;
65018;SDS011;66069;51.164;-114.452;2024-03-08T02:08:20;2.55;;;1.38;;
65018;SDS011;66069;51.164;-114.452;2024-03-08T02:10:47;2.50;;;1.40;;
65018;SDS011;66069;51.164;-114.452;2024-03-08T02:13:14;2.72;;;1.55;;
65018;SDS011;66069;51.164;-114.452;2024-03-08T02:15:52;2.42;;;1.25;;
65018;SDS011;66069;51.164;-114.452;2024-03-08T02:18:19;2.63;;;1.25;;
65018;SDS011;66069;51.164;-114.452;2024-03-08T02:20:47;2.85;;;1.50;;
65018;SDS011;66069;51.164;-114.452;2024-03-08T02:23:14;2.15;;;1.35;;
65018;SDS011;66069;51.164;-114.452;2024-03-08T02:25:40;2.97;;;1.17;;
65018;SDS011;66069;51.164;-114.452;2024-03-08T02:28:10;2.17;;;1.35;;
65018;SDS011;66069;51.164;-114.452;2024-03-08T02:30:37;2.22;;;1.15;;
65018;SDS011;66069;51.164;-114.452;2024-03-08T02:33:04;2.05;;;1.25;;
65018;SDS011;66069;51.164;-114.452;2024-03-08T02:35:31;2.30;;;1.30;;
65018;SDS011;66069;51.164;-114.452;2024-03-08T02:37:58;2.20;;;1.30;;
65018;SDS011;66069;51.164;-114.452;2024-03-08T02:40:25;1.80;;;1.13;;
65018;SDS011;66069;51.164;-114.452;2024-03-08T02:42:51;2.20;;;1.15;;
65018;SDS011;66069;51.164;-114.452;2024-03-08T02:45:20;2.83;;;1.52;;
65018;SDS011;66069;51.164;-114.452;2024-03-08T02:47:46;1.88;;;1.20;;
65018;SDS011;66069;51.164;-114.452;2024-03-08T02:50:14;2.15;;;1.27;;
65018;SDS011;66069;51.164;-114.452;2024-03-08T02:52:44;2.30;;;1.30;;
65018;SDS011;66069;51.164;-114.452;2024-03-08T02:55:11;2.00;;;1.05;;
65018;SDS011;66069;51.164;-114.452;2024-03-08T02:57:41;2.10;;;1.30;;
65018;SDS011;66069;51.164;-114.452;2024-03-08T03:00:12;2.13;;;1.20;;
65018;SDS011;66069;51.164;-114.452;2024-03-08T03:02:41;2.22;;;1.20;;
65018;SDS011;66069;51.164;-114.452;2024-03-08T03:05:08;1.67;;;0.95;;
65018;SDS011;66069;51.164;-114.452;2024-03-08T03:07:35;1.90;;;1.10;;
65018;SDS011;66069;51.164;-114.452;2024-03-08T03:10:02;2.08;;;1.13;;
65018;SDS011;66069;51.164;-114.452;2024-03-08T03:12:29;2.17;;;1.20;;
65018;SDS011;66069;51.164;-114.452;2024-03-08T03:14:57;2.20;;;1.00;;
65018;SDS011;66069;51.164;-114.452;2024-03-08T03:17:23;2.13;;;1.10;;
65018;SDS011;66069;51.164;-114.452;2024-03-08T03:19:50;2.15;;;1.30;;
65018;SDS011;66069;51.164;-114.452;2024-03-08T03:22:19;1.95;;;1.02;;
65018;SDS011;66069;51.164;-114.452;2024-03-08T03:24:45;1.40;;;0.70;;
65018;SDS011;66069;51.164;-114.452;2024-03-08T03:27:12;2.10;;;0.90;;
65018;SDS011;66069;51.164;-114.452;2024-03-08T03:29:43;1.50;;;0.90;;
65018;SDS011;66069;51.164;-114.452;2024-03-08T03:32:12;1.58;;;0.80;;
65018;SDS011;66069;51.164;-114.452;2024-03-08T03:34:41;2.13;;;1.33;;
65018;SDS011;66069;51.164;-114.452;2024-03-08T03:37:09;1.70;;;0.90;;
65018;SDS011;66069;51.164;-114.452;2024-03-08T03:39:39;1.50;;;0.90;;
65018;SDS011;66069;51.164;-114.452;2024-03-08T03:42:15;2.55;;;0.93;;
65018;SDS011;66069;51.164;-114.452;2024-03-08T03:44:47;2.03;;;1.00;;
65018;SDS011;66069;51.164;-114.452;2024-03-08T03:47:14;1.73;;;0.93;;
65018;SDS011;66069;51.164;-114.452;2024-03-08T03:49:41;1.83;;;0.90;;
65018;SDS011;66069;51.164;-114.452;2024-03-08T03:52:08;1.58;;;0.90;;
65018;SDS011;66069;51.164;-114.452;2024-03-08T03:54:35;3.38;;;0.90;;
65018;SDS011;66069;51.164;-114.452;2024-03-08T03:57:02;1.67;;;0.82;;
65018;SDS011;66069;51.164;-114.452;2024-03-08T03:59:28;1.90;;;0.95;;
65018;SDS011;66069;51.164;-114.452;2024-03-08T04:01:54;1.70;;;1.00;;
65018;SDS011;66069;51.164;-114.452;2024-03-08T04:04:21;1.38;;;0.80;;
65018;SDS011;66069;51.164;-114.452;2024-03-08T04:06:49;1.58;;;0.80;;
65018;SDS011;66069;51.164;-114.452;2024-03-08T04:09:16;1.45;;;0.88;;
65018;SDS011;66069;51.164;-114.452;2024-03-08T04:11:48;1.50;;;0.90;;
65018;SDS011;66069;51.164;-114.452;2024-03-08T04:16:44;1.25;;;0.70;;
65018;SDS011;66069;51.164;-114.452;2024-03-08T04:19:10;1.45;;;0.80;;
65018;SDS011;66069;51.164;-114.452;2024-03-08T04:21:36;1.63;;;0.73;;
65018;SDS011;66069;51.164;-114.452;2024-03-08T04:24:02;1.98;;;1.00;;
65018;SDS011;66069;51.164;-114.452;2024-03-08T04:26:28;1.70;;;1.00;;
65018;SDS011;66069;51.164;-114.452;2024-03-08T04:28:55;1.33;;;0.80;;
65018;SDS011;66069;51.164;-114.452;2024-03-08T04:31:21;1.50;;;0.70;;
65018;SDS011;66069;51.164;-114.452;2024-03-08T04:33:51;1.40;;;0.80;;
65018;SDS011;66069;51.164;-114.452;2024-03-08T04:36:18;2.20;;;1.00;;
65018;SDS011;66069;51.164;-114.452;2024-03-08T04:38:45;1.30;;;0.70;;
65018;SDS011;66069;51.164;-114.452;2024-03-08T04:41:11;2.03;;;1.00;;
65018;SDS011;66069;51.164;-114.452;2024-03-08T04:43:37;1.50;;;0.80;;
65018;SDS011;66069;51.164;-114.452;2024-03-08T04:46:04;1.17;;;0.70;;
65018;SDS011;66069;51.164;-114.452;2024-03-08T04:48:30;1.45;;;0.80;;
65018;SDS011;66069;51.164;-114.452;2024-03-08T04:50:57;1.60;;;1.08;;
65018;SDS011;66069;51.164;-114.452;2024-03-08T04:53:23;1.15;;;0.73;;
65018;SDS011;66069;51.164;-114.452;2024-03-08T04:55:49;1.27;;;0.70;;
65018;SDS011;66069;51.164;-114.452;2024-03-08T04:58:15;1.85;;;0.63;;
65018;SDS011;66069;51.164;-114.452;2024-03-08T05:00:42;1.45;;;0.80;;
65018;SDS011;66069;51.164;-114.452;2024-03-08T05:03:08;1.55;;;0.75;;
65018;SDS011;66069;51.164;-114.452;2024-03-08T05:05:34;1.15;;;0.70;;
65018;SDS011;66069;51.164;-114.452;2024-03-08T05:08:01;1.05;;;0.63;;
65018;SDS011;66069;51.164;-114.452;2024-03-08T05:10:28;1.73;;;0.80;;
65018;SDS011;66069;51.164;-114.452;2024-03-08T05:12:54;1.20;;;0.70;;
65018;SDS011;66069;51.164;-114.452;2024-03-08T05:15:20;1.70;;;0.90;;
65018;SDS011;66069;51.164;-114.452;2024-03-08T05:17:47;1.70;;;0.82;;
65018;SDS011;66069;51.164;-114.452;2024-03-08T05:20:13;1.40;;;0.77;;
65018;SDS011;66069;51.164;-114.452;2024-03-08T05:22:40;1.42;;;0.70;;
65018;SDS011;66069;51.164;-114.452;2024-03-08T05:25:06;1.85;;;0.82;;
65018;SDS011;66069;51.164;-114.452;2024-03-08T05:27:36;1.30;;;0.55;;
65018;SDS011;66069;51.164;-114.452;2024-03-08T05:30:05;1.45;;;0.60;;
65018;SDS011;66069;51.164;-114.452;2024-03-08T05:32:31;1.08;;;0.65;;
65018;SDS011;66069;51.164;-114.452;2024-03-08T05:34:58;1.85;;;0.70;;
65018;SDS011;66069;51.164;-114.452;2024-03-08T05:37:24;1.20;;;0.73;;
65018;SDS011;66069;51.164;-114.452;2024-03-08T05:39:50;1.25;;;0.60;;
65018;SDS011;66069;51.164;-114.452;2024-03-08T05:42:16;1.27;;;0.73;;
65018;SDS011;66069;51.164;-114.452;2024-03-08T05:44:42;1.42;;;0.77;;
65018;SDS011;66069;51.164;-114.452;2024-03-08T05:47:09;0.77;;;0.50;;
65018;SDS011;66069;51.164;-114.452;2024-03-08T05:49:36;1.60;;;0.80;;
65018;SDS011;66069;51.164;-114.452;2024-03-08T05:52:02;1.02;;;0.60;;
65018;SDS011;66069;51.164;-114.452;2024-03-08T05:54:28;1.45;;;0.73;;
65018;SDS011;66069;51.164;-114.452;2024-03-08T05:56:54;1.40;;;0.70;;
65018;SDS011;66069;51.164;-114.452;2024-03-08T05:59:21;1.13;;;0.70;;
65018;SDS011;66069;51.164;-114.452;2024-03-08T06:01:48;1.23;;;0.63;;
65018;SDS011;66069;51.164;-114.452;2024-03-08T06:04:14;1.00;;;0.50;;
65018;SDS011;66069;51.164;-114.452;2024-03-08T06:06:43;1.02;;;0.60;;
65018;SDS011;66069;51.164;-114.452;2024-03-08T06:09:09;1.33;;;0.60;;
65018;SDS011;66069;51.164;-114.452;2024-03-08T06:11:39;1.02;;;0.60;;
65018;SDS011;66069;51.164;-114.452;2024-03-08T06:14:06;1.08;;;0.65;;
65018;SDS011;66069;51.164;-114.452;2024-03-08T06:16:32;1.15;;;0.57;;
65018;SDS011;66069;51.164;-114.452;2024-03-08T06:18:59;0.77;;;0.57;;
65018;SDS011;66069;51.164;-114.452;2024-03-08T06:21:27;1.65;;;0.98;;
65018;SDS011;66069;51.164;-114.452;2024-03-08T06:23:53;1.20;;;0.50;;
65018;SDS011;66069;51.164;-114.452;2024-03-08T06:26:29;1.35;;;0.73;;
65018;SDS011;66069;51.164;-114.452;2024-03-08T06:28:55;0.85;;;0.55;;
65018;SDS011;66069;51.164;-114.452;2024-03-08T06:31:21;1.63;;;0.60;;
65018;SDS011;66069;51.164;-114.452;2024-03-08T06:33:48;1.27;;;0.63;;
65018;SDS011;66069;51.164;-114.452;2024-03-08T06:36:19;0.93;;;0.52;;
65018;SDS011;66069;51.164;-114.452;2024-03-08T06:38:47;0.65;;;0.40;;
65018;SDS011;66069;51.164;-114.452;2024-03-08T06:41:14;1.27;;;0.60;;
65018;SDS011;66069;51.164;-114.452;2024-03-08T06:43:43;1.15;;;0.60;;
65018;SDS011;66069;51.164;-114.452;2024-03-08T06:46:11;1.98;;;0.77;;
65018;SDS011;66069;51.164;-114.452;2024-03-08T06:48:41;0.95;;;0.60;;
65018;SDS011;66069;51.164;-114.452;2024-03-08T06:51:07;0.77;;;0.43;;
65018;SDS011;66069;51.164;-114.452;2024-03-08T06:53:33;1.45;;;0.70;;
65018;SDS011;66069;51.164;-114.452;2024-03-08T06:56:03;1.65;;;0.60;;
65018;SDS011;66069;51.164;-114.452;2024-03-08T06:58:30;0.90;;;0.50;;
65018;SDS011;66069;51.164;-114.452;2024-03-08T07:00:56;0.63;;;0.45;;
65018;SDS011;66069;51.164;-114.452;2024-03-08T07:03:25;1.15;;;0.57;;
65018;SDS011;66069;51.164;-114.452;2024-03-08T07:05:55;1.40;;;0.50;;
65018;SDS011;66069;51.164;-114.452;2024-03-08T07:08:23;1.23;;;0.68;;
65018;SDS011;66069;51.164;-114.452;2024-03-08T07:10:50;0.65;;;0.40;;
65018;SDS011;66069;51.164;-114.452;2024-03-08T07:13:16;1.15;;;0.50;;
65018;SDS011;66069;51.164;-114.452;2024-03-08T07:15:43;1.50;;;0.60;;
65018;SDS011;66069;51.164;-114.452;2024-03-08T07:18:11;1.02;;;0.60;;
65018;SDS011;66069;51.164;-114.452;2024-03-08T07:20:40;0.77;;;0.47;;
65018;SDS011;66069;51.164;-114.452;2024-03-08T07:23:08;0.82;;;0.40;;
65018;SDS011;66069;51.164;-114.452;2024-03-08T07:25:35;1.27;;;0.70;;
65018;SDS011;66069;51.164;-114.452;2024-03-08T07:28:04;1.08;;;0.50;;
65018;SDS011;66069;51.164;-114.452;2024-03-08T07:30:31;0.73;;;0.50;;
65018;SDS011;66069;51.164;-114.452;2024-03-08T07:33:10;0.80;;;0.50;;
65018;SDS011;66069;51.164;-114.452;2024-03-08T07:35:40;1.10;;;0.50;;
65018;SDS011;66069;51.164;-114.452;2024-03-08T07:38:10;0.60;;;0.40;;
65018;SDS011;66069;51.164;-114.452;2024-03-08T07:40:37;1.00;;;0.60;;
65018;SDS011;66069;51.164;-114.452;2024-03-08T07:43:09;0.90;;;0.50;;
65018;SDS011;66069;51.164;-114.452;2024-03-08T07:45:39;1.30;;;0.60;;
65018;SDS011;66069;51.164;-114.452;2024-03-08T07:48:06;1.02;;;0.52;;
65018;SDS011;66069;51.164;-114.452;2024-03-08T07:50:41;1.03;;;0.50;;
65018;SDS011;66069;51.164;-114.452;2024-03-08T07:53:07;1.20;;;0.52;;
65018;SDS011;66069;51.164;-114.452;2024-03-08T07:55:34;0.70;;;0.40;;
65018;SDS011;66069;51.164;-114.452;2024-03-08T07:58:01;1.20;;;0.50;;
65018;SDS011;66069;51.164;-114.452;2024-03-08T08:00:28;1.15;;;0.55;;
65018;SDS011;66069;51.164;-114.452;2024-03-08T08:02:56;1.20;;;0.60;;
65018;SDS011;66069;51.164;-114.452;2024-03-08T08:05:23;1.02;;;0.40;;
65018;SDS011;66069;51.164;-114.452;2024-03-08T08:07:49;1.42;;;0.50;;
65018;SDS011;66069;51.164;-114.452;2024-03-08T08:10:17;1.05;;;0.50;;
65018;SDS011;66069;51.164;-114.452;2024-03-08T08:12:50;1.45;;;0.65;;
65018;SDS011;66069;51.164;-114.452;2024-03-08T08:15:17;0.50;;;0.30;;
65018;SDS011;66069;51.164;-114.452;2024-03-08T08:17:46;0.50;;;0.40;;
65018;SDS011;66069;51.164;-114.452;2024-03-08T08:20:17;1.10;;;0.70;;
65018;SDS011;66069;51.164;-114.452;2024-03-08T08:22:43;0.50;;;0.30;;
65018;SDS011;66069;51.164;-114.452;2024-03-08T08:25:10;1.20;;;0.40;;
65018;SDS011;66069;51.164;-114.452;2024-03-08T08:27:45;0.77;;;0.40;;
65018;SDS011;66069;51.164;-114.452;2024-03-08T08:30:12;1.15;;;0.73;;
65018;SDS011;66069;51.164;-114.452;2024-03-08T08:32:39;1.05;;;0.40;;
65018;SDS011;66069;51.164;-114.452;2024-03-08T08:35:07;0.85;;;0.40;;
65018;SDS011;66069;51.164;-114.452;2024-03-08T08:37:35;0.63;;;0.52;;
65018;SDS011;66069;51.164;-114.452;2024-03-08T08:40:04;1.10;;;0.50;;
65018;SDS011;66069;51.164;-114.452;2024-03-08T08:42:35;0.90;;;0.50;;
65018;SDS011;66069;51.164;-114.452;2024-03-08T08:45:03;1.05;;;0.50;;
65018;SDS011;66069;51.164;-114.452;2024-03-08T08:47:33;1.10;;;0.50;;
65018;SDS011;66069;51.164;-114.452;2024-03-08T08:50:03;0.90;;;0.70;;
65018;SDS011;66069;51.164;-114.452;2024-03-08T08:52:30;1.55;;;0.50;;
65018;SDS011;66069;51.164;-114.452;2024-03-08T08:54:57;0.95;;;0.50;;
65018;SDS011;66069;51.164;-114.452;2024-03-08T08:57:23;1.70;;;0.70;;
65018;SDS011;66069;51.164;-114.452;2024-03-08T08:59:50;0.70;;;0.40;;
65018;SDS011;66069;51.164;-114.452;2024-03-08T09:02:16;0.68;;;0.40;;
65018;SDS011;66069;51.164;-114.452;2024-03-08T09:04:46;0.63;;;0.35;;
65018;SDS011;66069;51.164;-114.452;2024-03-08T09:07:13;1.13;;;0.47;;
65018;SDS011;66069;51.164;-114.452;2024-03-08T09:09:41;0.88;;;0.43;;
65018;SDS011;66069;51.164;-114.452;2024-03-08T09:12:08;0.85;;;0.50;;
65018;SDS011;66069;51.164;-114.452;2024-03-08T09:14:39;0.60;;;0.40;;
65018;SDS011;66069;51.164;-114.452;2024-03-08T09:17:06;0.57;;;0.30;;
65018;SDS011;66069;51.164;-114.452;2024-03-08T09:19:36;0.38;;;0.30;;
65018;SDS011;66069;51.164;-114.452;2024-03-08T09:22:03;0.38;;;0.30;;
65018;SDS011;66069;51.164;-114.452;2024-03-08T09:24:30;0.63;;;0.40;;
65018;SDS011;66069;51.164;-114.452;2024-03-08T09:26:56;0.65;;;0.30;;
65018;SDS011;66069;51.164;-114.452;2024-03-08T09:29:24;0.55;;;0.40;;
65018;SDS011;66069;51.164;-114.452;2024-03-08T09:31:50;1.02;;;0.57;;
65018;SDS011;66069;51.164;-114.452;2024-03-08T09:34:17;0.95;;;0.52;;
65018;SDS011;66069;51.164;-114.452;2024-03-08T09:36:44;1.30;;;0.50;;
65018;SDS011;66069;51.164;-114.452;2024-03-08T09:39:10;0.63;;;0.32;;
65018;SDS011;66069;51.164;-114.452;2024-03-08T09:41:42;0.50;;;0.40;;
65018;SDS011;66069;51.164;-114.452;2024-03-08T09:44:09;0.85;;;0.50;;
65018;SDS011;66069;51.164;-114.452;2024-03-08T09:46:36;0.40;;;0.30;;
65018;SDS011;66069;51.164;-114.452;2024-03-08T09:49:03;0.75;;;0.40;;
65018;SDS011;66069;51.164;-114.452;2024-03-08T09:51:31;0.75;;;0.32;;
65018;SDS011;66069;51.164;-114.452;2024-03-08T09:54:00;0.95;;;0.45;;
65018;SDS011;66069;51.164;-114.452;2024-03-08T09:56:32;0.70;;;0.40;;
65018;SDS011;66069;51.164;-114.452;2024-03-08T09:58:59;0.93;;;0.45;;
65018;SDS011;66069;51.164;-114.452;2024-03-08T10:02:00;0.50;;;0.35;;
65018;SDS011;66069;51.164;-114.452;2024-03-08T10:04:30;1.23;;;0.50;;
65018;SDS011;66069;51.164;-114.452;2024-03-08T10:06:58;0.52;;;0.40;;
65018;SDS011;66069;51.164;-114.452;2024-03-08T10:09:25;0.73;;;0.40;;
65018;SDS011;66069;51.164;-114.452;2024-03-08T10:11:56;0.47;;;0.38;;
65018;SDS011;66069;51.164;-114.452;2024-03-08T10:14:25;0.20;;;0.20;;
65018;SDS011;66069;51.164;-114.452;2024-03-08T10:16:54;0.40;;;0.30;;
65018;SDS011;66069;51.164;-114.452;2024-03-08T10:19:25;0.35;;;0.30;;
65018;SDS011;66069;51.164;-114.452;2024-03-08T10:21:53;1.25;;;0.35;;
65018;SDS011;66069;51.164;-114.452;2024-03-08T10:24:19;1.08;;;0.40;;
65018;SDS011;66069;51.164;-114.452;2024-03-08T10:26:45;0.28;;;0.20;;
65018;SDS011;66069;51.164;-114.452;2024-03-08T10:29:13;0.93;;;0.50;;
65018;SDS011;66069;51.164;-114.452;2024-03-08T10:31:43;0.70;;;0.40;;
65018;SDS011;66069;51.164;-114.452;2024-03-08T10:34:12;0.80;;;0.30;;
65018;SDS011;66069;51.164;-114.452;2024-03-08T10:36:39;0.57;;;0.30;;
65018;SDS011;66069;51.164;-114.452;2024-03-08T10:39:52;0.82;;;0.32;;
65018;SDS011;66069;51.164;-114.452;2024-03-08T10:42:02;0.75;;;0.60;;
65018;SDS011;66069;51.164;-114.452;2024-03-08T10:47:19;0.73;;;0.30;;
65018;SDS011;66069;51.164;-114.452;2024-03-08T10:52:38;0.20;;;0.20;;
65018;SDS011;66069;51.164;-114.452;2024-03-08T10:55:05;0.68;;;0.40;;
65018;SDS011;66069;51.164;-114.452;2024-03-08T10:57:40;0.73;;;0.32;;
65018;SDS011;66069;51.164;-114.452;2024-03-08T11:00:07;0.70;;;0.30;;
65018;SDS011;66069;51.164;-114.452;2024-03-08T11:05:03;0.50;;;0.30;;
65018;SDS011;66069;51.164;-114.452;2024-03-08T11:07:34;0.68;;;0.38;;
65018;SDS011;66069;51.164;-114.452;2024-03-08T11:10:03;0.93;;;0.40;;
65018;SDS011;66069;51.164;-114.452;2024-03-08T11:12:35;0.65;;;0.30;;
65018;SDS011;66069;51.164;-114.452;2024-03-08T11:15:09;0.50;;;0.30;;
65018;SDS011;66069;51.164;-114.452;2024-03-08T11:20:14;0.35;;;0.32;;
65018;SDS011;66069;51.164;-114.452;2024-03-08T11:22:49;0.60;;;0.40;;
65018;SDS011;66069;51.164;-114.452;2024-03-08T11:25:34;0.60;;;0.30;;
65018;SDS011;66069;51.164;-114.452;2024-03-08T11:28:07;0.55;;;0.40;;
65018;SDS011;66069;51.164;-114.452;2024-03-08T11:33:31;0.68;;;0.32;;
65018;SDS011;66069;51.164;-114.452;2024-03-08T11:38:31;0.28;;;0.28;;
65018;SDS011;66069;51.164;-114.452;2024-03-08T11:40:58;0.80;;;0.40;;
65018;SDS011;66069;51.164;-114.452;2024-03-08T11:43:24;0.28;;;0.20;;
65018;SDS011;66069;51.164;-114.452;2024-03-08T11:45:51;0.38;;;0.30;;
65018;SDS011;66069;51.164;-114.452;2024-03-08T11:48:33;0.55;;;0.30;;
65018;SDS011;66069;51.164;-114.452;2024-03-08T11:51:01;0.65;;;0.40;;
65018;SDS011;66069;51.164;-114.452;2024-03-08T11:53:28;0.75;;;0.28;;
65018;SDS011;66069;51.164;-114.452;2024-03-08T11:55:54;0.50;;;0.30;;
65018;SDS011;66069;51.164;-114.452;2024-03-08T11:58:30;0.32;;;0.20;;
65018;SDS011;66069;51.164;-114.452;2024-03-08T12:01:07;0.75;;;0.40;;
65018;SDS011;66069;51.164;-114.452;2024-03-08T12:03:42;0.20;;;0.20;;
65018;SDS011;66069;51.164;-114.452;2024-03-08T12:06:09;0.43;;;0.20;;
65018;SDS011;66069;51.164;-114.452;2024-03-08T12:08:41;0.38;;;0.30;;
65018;SDS011;66069;51.164;-114.452;2024-03-08T12:11:07;0.55;;;0.30;;
65018;SDS011;66069;51.164;-114.452;2024-03-08T12:13:35;0.40;;;0.28;;
65018;SDS011;66069;51.164;-114.452;2024-03-08T12:16:04;0.35;;;0.20;;
65018;SDS011;66069;51.164;-114.452;2024-03-08T12:18:37;0.40;;;0.30;;
65018;SDS011;66069;51.164;-114.452;2024-03-08T12:21:05;0.55;;;0.30;;
65018;SDS011;66069;51.164;-114.452;2024-03-08T12:23:46;0.55;;;0.38;;
65018;SDS011;66069;51.164;-114.452;2024-03-08T12:26:17;0.40;;;0.30;;
65018;SDS011;66069;51.164;-114.452;2024-03-08T12:28:49;0.50;;;0.30;;
65018;SDS011;66069;51.164;-114.452;2024-03-08T12:31:16;0.20;;;0.10;;
65018;SDS011;66069;51.164;-114.452;2024-03-08T12:36:24;0.28;;;0.20;;
65018;SDS011;66069;51.164;-114.452;2024-03-08T12:38:51;0.35;;;0.20;;
65018;SDS011;66069;51.164;-114.452;2024-03-08T12:41:22;0.52;;;0.22;;
65018;SDS011;66069;51.164;-114.452;2024-03-08T12:43:49;0.40;;;0.20;;
65018;SDS011;66069;51.164;-114.452;2024-03-08T12:48:42;0.22;;;0.20;;
65018;SDS011;66069;51.164;-114.452;2024-03-08T12:51:15;0.30;;;0.30;;
65018;SDS011;66069;51.164;-114.452;2024-03-08T12:53:43;0.43;;;0.20;;
65018;SDS011;66069;51.164;-114.452;2024-03-08T12:56:11;0.47;;;0.28;;
65018;SDS011;66069;51.164;-114.452;2024-03-08T12:58:38;0.15;;;0.13;;
65018;SDS011;66069;51.164;-114.452;2024-03-08T13:01:06;0.40;;;0.20;;
65018;SDS011;66069;51.164;-114.452;2024-03-08T13:03:35;0.38;;;0.20;;
65018;SDS011;66069;51.164;-114.452;2024-03-08T13:06:05;0.30;;;0.30;;
65018;SDS011;66069;51.164;-114.452;2024-03-08T13:08:35;0.28;;;0.20;;
65018;SDS011;66069;51.164;-114.452;2024-03-08T13:11:07;0.20;;;0.20;;
65018;SDS011;66069;51.164;-114.452;2024-03-08T13:13:36;0.30;;;0.20;;
65018;SDS011;66069;51.164;-114.452;2024-03-08T13:16:05;0.73;;;0.30;;
65018;SDS011;66069;51.164;-114.452;2024-03-08T13:18:35;1.42;;;0.30;;
65018;SDS011;66069;51.164;-114.452;2024-03-08T13:21:02;0.20;;;0.20;;
65018;SDS011;66069;51.164;-114.452;2024-03-08T13:23:32;0.32;;;0.20;;
65018;SDS011;66069;51.164;-114.452;2024-03-08T13:26:07;0.10;;;0.10;;
65018;SDS011;66069;51.164;-114.452;2024-03-08T13:28:34;0.40;;;0.20;;
65018;SDS011;66069;51.164;-114.452;2024-03-08T13:31:04;0.47;;;0.28;;
65018;SDS011;66069;51.164;-114.452;2024-03-08T13:33:38;0.60;;;0.30;;
65018;SDS011;66069;51.164;-114.452;2024-03-08T13:36:08;0.43;;;0.20;;
65018;SDS011;66069;51.164;-114.452;2024-03-08T13:38:43;0.20;;;0.20;;
65018;SDS011;66069;51.164;-114.452;2024-03-08T13:41:12;0.20;;;0.20;;
65018;SDS011;66069;51.164;-114.452;2024-03-08T13:43:46;0.40;;;0.25;;
65018;SDS011;66069;51.164;-114.452;2024-03-08T13:46:16;0.30;;;0.20;;
65018;SDS011;66069;51.164;-114.452;2024-03-08T13:48:43;0.20;;;0.20;;
65018;SDS011;66069;51.164;-114.452;2024-03-08T13:51:09;0.25;;;0.20;;
65018;SDS011;66069;51.164;-114.452;2024-03-08T13:53:37;0.20;;;0.20;;
65018;SDS011;66069;51.164;-114.452;2024-03-08T13:56:05;0.30;;;0.20;;
65018;SDS011;66069;51.164;-114.452;2024-03-08T13:58:31;0.20;;;0.20;;
65018;SDS011;66069;51.164;-114.452;2024-03-08T14:00:58;0.20;;;0.20;;
65018;SDS011;66069;51.164;-114.452;2024-03-08T14:03:25;0.30;;;0.20;;
65018;SDS011;66069;51.164;-114.452;2024-03-08T14:05:51;0.30;;;0.30;;
65018;SDS011;66069;51.164;-114.452;2024-03-08T14:08:18;0.10;;;0.10;;
65018;SDS011;66069;51.164;-114.452;2024-03-08T14:10:44;0.25;;;0.20;;
65018;SDS011;66069;51.164;-114.452;2024-03-08T14:13:12;0.95;;;0.28;;
65018;SDS011;66069;51.164;-114.452;2024-03-08T14:15:41;0.10;;;0.10;;
65018;SDS011;66069;51.164;-114.452;2024-03-08T14:18:07;0.30;;;0.20;;
65018;SDS011;66069;51.164;-114.452;2024-03-08T14:20:34;0.40;;;0.20;;
65018;SDS011;66069;51.164;-114.452;2024-03-08T14:23:00;0.17;;;0.17;;
65018;SDS011;66069;51.164;-114.452;2024-03-08T14:25:26;0.20;;;0.20;;
65018;SDS011;66069;51.164;-114.452;2024-03-08T14:27:55;0.38;;;0.20;;
65018;SDS011;66069;51.164;-114.452;2024-03-08T14:30:27;0.20;;;0.20;;
65018;SDS011;66069;51.164;-114.452;2024-03-08T14:33:06;0.10;;;0.10;;
65018;SDS011;66069;51.164;-114.452;2024-03-08T14:35:36;0.20;;;0.20;;
65018;SDS011;66069;51.164;-114.452;2024-03-08T14:38:03;0.45;;;0.20;;